Time;durP1;ratioP1;P1;durP2;ratioP2;P2;SDS_P1;SDS_P2;PMS_P1;PMS_P2;Temp;Humidity;BMP_temperature;BMP_pressure;BME280_temperature;BME280_humidity;BME280_pressure;Samples;Min_cycle;Max_cycle;Signal;HPM_P1;HPM_P2
2023/12/27 00:02:03;;;;;;;27.70;16.60;;;;;;;6.18;100.00;100713.56;5010702;28;20381;-77
2023/12/27 00:04:28;;;;;;;23.27;15.00;;;;;;;6.04;100.00;100724.69;5008883;28;20492;-76
2023/12/27 00:06:56;;;;;;;25.67;14.27;;;;;;;5.96;100.00;100716.50;5011668;28;20037;-76
2023/12/27 00:09:22;;;;;;;24.23;14.88;;;;;;;5.96;100.00;100739.56;5011957;28;20079;-77
2023/12/27 00:11:47;;;;;;;20.88;12.93;;;;;;;5.82;100.00;100743.88;5010671;28;20658;-76
2023/12/27 00:14:13;;;;;;;21.52;13.15;;;;;;;5.78;100.00;100740.22;5010802;28;20029;-77
2023/12/27 00:16:38;;;;;;;20.58;12.48;;;;;;;5.74;100.00;100725.44;5012039;28;20505;-76
2023/12/27 00:19:04;;;;;;;19.55;12.40;;;;;;;5.82;100.00;100729.38;5012167;28;20034;-77
2023/12/27 00:21:29;;;;;;;24.80;13.38;;;;;;;5.90;100.00;100752.00;5011743;28;20037;-77
2023/12/27 00:23:55;;;;;;;17.33;11.68;;;;;;;5.90;100.00;100750.31;5012243;28;20030;-76
2023/12/27 00:26:21;;;;;;;19.92;10.55;;;;;;;5.60;100.00;100682.75;5012084;28;20025;-77
2023/12/27 00:28:46;;;;;;;18.02;12.50;;;;;;;5.99;100.00;100747.47;5010668;28;20373;-77
2023/12/27 00:31:12;;;;;;;18.38;11.15;;;;;;;6.01;100.00;100755.22;5011653;28;20548;-77
2023/12/27 00:33:37;;;;;;;19.88;11.13;;;;;;;6.03;100.00;100753.66;5011798;28;20045;-76
2023/12/27 00:36:04;;;;;;;19.70;11.18;;;;;;;5.93;100.00;100744.50;5011810;28;20037;-77
2023/12/27 00:38:30;;;;;;;21.52;10.85;;;;;;;5.95;100.00;100759.16;5011799;28;20072;-76
2023/12/27 00:40:55;;;;;;;16.38;10.18;;;;;;;5.97;100.00;100762.72;5011694;28;20100;-77
2023/12/27 00:43:21;;;;;;;17.45;10.40;;;;;;;5.99;100.00;100767.97;5011922;28;20446;-77
2023/12/27 00:45:46;;;;;;;24.27;11.88;;;;;;;5.88;100.00;100759.63;5011587;28;20425;-76
2023/12/27 00:48:12;;;;;;;19.52;11.57;;;;;;;5.64;100.00;100743.63;5011414;28;20030;-75
2023/12/27 00:50:37;;;;;;;17.73;9.93;;;;;;;5.50;100.00;100735.09;5011468;28;20030;-76
2023/12/27 00:53:03;;;;;;;25.15;12.65;;;;;;;5.65;100.00;100777.00;5011038;28;20092;-75
2023/12/27 00:55:29;;;;;;;17.33;11.73;;;;;;;5.61;100.00;100784.44;5010355;28;20034;-75
2023/12/27 00:57:54;;;;;;;15.77;10.48;;;;;;;5.60;100.00;100783.53;5009962;28;20476;-77
2023/12/27 01:00:20;;;;;;;19.83;10.32;;;;;;;5.58;100.00;100800.50;5009841;28;20034;-76
2023/12/27 01:02:45;;;;;;;18.48;10.43;;;;;;;5.47;100.00;100806.59;5010877;28;20122;-77
2023/12/27 01:05:11;;;;;;;17.75;10.55;;;;;;;5.32;100.00;100802.28;5010956;28;20033;-76
2023/12/27 01:07:36;;;;;;;20.52;11.00;;;;;;;5.27;100.00;100783.19;5009505;28;20121;-76
2023/12/27 01:10:03;;;;;;;18.08;11.13;;;;;;;4.38;100.00;100630.03;5009893;28;20033;-77
2023/12/27 01:12:29;;;;;;;20.52;12.20;;;;;;;5.39;100.00;100787.31;5011154;28;20038;-76
2023/12/27 01:14:54;;;;;;;19.20;11.77;;;;;;;5.35;100.00;100783.69;5010937;28;20033;-76
2023/12/27 01:17:20;;;;;;;22.98;12.23;;;;;;;5.00;100.00;100788.31;5009513;28;20026;-76
2023/12/27 01:19:45;;;;;;;23.25;12.18;;;;;;;4.78;100.00;100769.81;5009808;28;20030;-76
2023/12/27 01:22:11;;;;;;;22.92;12.48;;;;;;;4.79;100.00;100779.25;5009676;28;20424;-77
2023/12/27 01:24:36;;;;;;;21.80;13.07;;;;;;;5.08;100.00;100801.59;5009332;28;20061;-77
2023/12/27 01:27:02;;;;;;;21.80;12.38;;;;;;;5.08;100.00;100785.38;5010553;28;20481;-77
2023/12/27 01:29:27;;;;;;;22.25;12.38;;;;;;;5.26;100.00;100795.88;5009659;28;20018;-77
2023/12/27 01:31:53;;;;;;;22.92;13.00;;;;;;;5.27;100.00;100783.19;5010527;28;20472;-77
2023/12/27 01:34:18;;;;;;;20.63;11.90;;;;;;;5.39;100.00;100784.75;5009027;28;20124;-77
2023/12/27 01:36:44;;;;;;;19.92;11.98;;;;;;;5.45;100.00;100777.47;5010690;28;20037;-77
2023/12/27 01:39:09;;;;;;;20.17;12.30;;;;;;;5.51;100.00;100773.59;5009169;28;20124;-78
2023/12/27 01:41:35;;;;;;;18.92;12.95;;;;;;;5.45;100.00;100754.41;5010696;28;20034;-77
2023/12/27 01:44:00;;;;;;;21.73;13.25;;;;;;;5.47;100.00;100768.19;5010869;28;20053;-77
2023/12/27 01:46:28;;;;;;;20.67;13.93;;;;;;;5.28;100.00;100774.75;5010062;28;20070;-77
2023/12/27 01:48:54;;;;;;;21.02;12.90;;;;;;;4.99;100.00;100743.03;5010671;28;20087;-77
2023/12/27 01:51:20;;;;;;;22.10;14.73;;;;;;;4.94;100.00;100767.44;5010705;28;20037;-77
2023/12/27 01:53:46;;;;;;;24.35;13.80;;;;;;;4.74;100.00;100747.38;5027363;28;20103;-77
2023/12/27 01:56:12;;;;;;;26.20;15.43;;;;;;;4.81;100.00;100765.78;5027304;28;20546;-78
2023/12/27 01:58:38;;;;;;;23.67;15.10;;;;;;;4.77;100.00;100743.34;5027921;28;20037;-78
2023/12/27 02:01:03;;;;;;;22.85;16.60;;;;;;;4.82;100.00;100746.19;5027116;28;20033;-79
2023/12/27 02:03:29;;;;;;;26.05;15.18;;;;;;;4.87;100.00;100757.59;5027441;28;20048;-79
2023/12/27 02:05:56;;;;;;;31.50;17.55;;;;;;;4.80;100.00;100756.34;5010750;28;20040;-79
2023/12/27 02:08:23;;;;;;;31.05;17.45;;;;;;;4.93;100.00;100770.78;5027574;28;20099;-79
2023/12/27 02:10:48;;;;;;;25.50;14.90;;;;;;;4.51;100.00;100699.06;5027407;28;20041;-77
2023/12/27 02:13:14;;;;;;;24.90;15.52;;;;;;;4.66;100.00;100722.19;5027441;28;20463;-76
2023/12/27 02:15:40;;;;;;;26.45;14.40;;;;;;;5.00;100.00;100777.22;5027221;28;20033;-76
2023/12/27 02:18:07;;;;;;;21.95;14.20;;;;;;;4.86;100.00;100763.53;5027179;28;20076;-79
2023/12/27 02:20:33;;;;;;;26.67;15.68;;;;;;;4.59;100.00;100712.34;5027141;28;20044;-75
2023/12/27 02:23:05;;;;;;;24.98;15.18;;;;;;;5.09;100.00;100784.59;5011055;28;20029;-78
2023/12/27 02:25:31;;;;;;;28.20;14.82;;;;;;;5.01;100.00;100779.84;5013139;28;20046;-79
2023/12/27 02:27:56;;;;;;;25.83;14.52;;;;;;;4.93;100.00;100769.91;5009182;28;20030;-79
2023/12/27 02:30:23;;;;;;;23.33;14.82;;;;;;;4.93;100.00;100778.47;5010618;28;20543;-79
2023/12/27 02:32:49;;;;;;;23.25;14.25;;;;;;;4.41;100.00;100718.81;5014202;28;20080;-79
2023/12/27 02:35:16;;;;;;;21.52;14.50;;;;;;;4.73;100.00;100784.84;5014211;28;20104;-78
2023/12/27 02:37:41;;;;;;;23.45;14.30;;;;;;;4.79;100.00;100784.38;5012878;28;20030;-79
2023/12/27 02:40:08;;;;;;;23.67;14.18;;;;;;;4.80;100.00;100787.03;5013009;28;20064;-78
2023/12/27 02:42:35;;;;;;;21.95;14.10;;;;;;;4.82;100.00;100793.13;5014134;28;20437;-77
2023/12/27 02:45:01;;;;;;;26.15;14.95;;;;;;;4.58;100.00;100766.81;5013861;28;20172;-78
2023/12/27 02:47:26;;;;;;;23.63;15.50;;;;;;;4.28;100.00;100722.25;5014286;28;20112;-77
2023/12/27 02:49:52;;;;;;;23.60;14.73;;;;;;;4.67;100.00;100785.34;5013810;28;20403;-78
2023/12/27 02:52:17;;;;;;;23.58;13.85;;;;;;;4.71;100.00;100796.66;5014281;28;20097;-78
2023/12/27 02:54:43;;;;;;;24.65;15.27;;;;;;;4.25;100.00;100714.34;5014090;28;20400;-77
2023/12/27 02:57:08;;;;;;;23.45;15.00;;;;;;;4.75;100.00;100795.16;5013860;28;20029;-77
2023/12/27 02:59:34;;;;;;;26.75;15.48;;;;;;;4.71;100.00;100796.66;5013564;28;20033;-78
2023/12/27 03:01:59;;;;;;;24.35;15.23;;;;;;;4.77;100.00;100794.50;5013714;28;20034;-78
2023/12/27 03:04:25;;;;;;;23.55;14.38;;;;;;;4.67;100.00;100777.69;5013871;28;20026;-78
2023/12/27 03:06:50;;;;;;;25.92;14.40;;;;;;;4.83;100.00;100810.22;5013634;28;20029;-78
2023/12/27 03:09:16;;;;;;;26.10;15.02;;;;;;;4.90;100.00;100820.88;5013575;28;20054;-78
2023/12/27 03:11:41;;;;;;;24.35;15.45;;;;;;;4.86;100.00;100823.25;5013772;28;20037;-78
2023/12/27 03:14:07;;;;;;;22.77;14.73;;;;;;;4.91;100.00;100814.97;5030777;28;20030;-77
2023/12/27 03:16:32;;;;;;;24.92;14.25;;;;;;;4.97;100.00;100817.94;5030948;28;20041;-78
2023/12/27 03:18:59;;;;;;;25.10;14.85;;;;;;;4.89;100.00;100808.88;5030852;28;20425;-78
2023/12/27 03:21:25;;;;;;;22.52;14.50;;;;;;;4.82;100.00;100803.38;5030814;28;20029;-78
2023/12/27 03:23:51;;;;;;;21.73;14.27;;;;;;;4.75;100.00;100816.53;5013955;28;20091;-78
2023/12/27 03:26:16;;;;;;;22.63;13.82;;;;;;;3.96;100.00;100680.09;5030873;28;20076;-78
2023/12/27 03:28:42;;;;;;;26.25;13.88;;;;;;;4.67;100.00;100810.03;5030708;28;20041;-78
2023/12/27 03:31:07;;;;;;;24.60;15.05;;;;;;;4.78;100.00;100834.63;5030697;28;20121;-78
2023/12/27 03:33:33;;;;;;;22.52;14.60;;;;;;;4.69;100.00;100828.91;5030604;28;20047;-78
2023/12/27 03:35:59;;;;;;;22.90;14.07;;;;;;;4.27;100.00;100756.25;5030584;28;20790;-78
2023/12/27 03:38:24;;;;;;;22.17;13.68;;;;;;;4.27;100.00;100767.34;5030441;28;20141;-78
2023/12/27 03:40:50;;;;;;;25.75;13.73;;;;;;;4.53;100.00;100825.31;5030341;28;20081;-78
2023/12/27 03:43:16;;;;;;;22.88;13.65;;;;;;;4.48;100.00;100839.47;5012805;28;20052;-78
2023/12/27 03:45:41;;;;;;;19.92;13.55;;;;;;;4.25;100.00;100807.25;5017297;28;20104;-77
2023/12/27 03:48:07;;;;;;;21.73;13.93;;;;;;;4.26;100.00;100836.25;5011818;28;20057;-78
2023/12/27 03:50:32;;;;;;;27.08;13.88;;;;;;;4.30;100.00;100846.81;5011660;28;20467;-77
2023/12/27 03:52:58;;;;;;;22.80;13.23;;;;;;;4.26;100.00;100855.03;5011649;28;20032;-77
2023/12/27 03:55:25;;;;;;;29.02;14.73;;;;;;;4.35;100.00;100849.69;5011578;28;20034;-78
2023/12/27 03:57:51;;;;;;;21.95;13.23;;;;;;;4.41;100.00;100861.97;5011314;28;20033;-77
2023/12/27 04:00:17;;;;;;;21.65;13.40;;;;;;;4.00;100.00;100784.25;5012890;28;20034;-78
2023/12/27 04:02:42;;;;;;;21.55;12.98;;;;;;;4.44;100.00;100844.31;5012714;28;20029;-78
2023/12/27 04:05:08;;;;;;;23.30;14.23;;;;;;;4.43;100.00;100835.72;5012589;28;20057;-77
2023/12/27 04:07:34;;;;;;;23.52;13.55;;;;;;;4.44;100.00;100845.16;5011053;28;20029;-78
2023/12/27 04:10:00;;;;;;;21.83;13.68;;;;;;;3.67;100.00;100702.88;5012534;28;20030;-77
2023/12/27 04:12:25;;;;;;;21.27;12.77;;;;;;;4.56;100.00;100872.34;5012348;28;20030;-76
2023/12/27 04:14:51;;;;;;;23.33;13.65;;;;;;;4.50;100.00;100871.16;5012405;28;20030;-77
2023/12/27 04:17:16;;;;;;;20.45;13.48;;;;;;;4.54;100.00;100888.47;5012695;28;20068;-77
2023/12/27 04:19:42;;;;;;;35.60;23.85;;;;;;;4.42;100.00;100872.28;5012505;28;20041;-77
2023/12/27 04:22:08;;;;;;;35.35;23.48;;;;;;;4.21;100.00;100856.38;5012414;28;20030;-77
2023/12/27 04:24:34;;;;;;;33.00;22.25;;;;;;;4.35;100.00;100893.13;5012236;28;20515;-77
2023/12/27 04:26:59;;;;;;;33.25;22.98;;;;;;;4.07;100.00;100829.88;5012109;28;20014;-77
2023/12/27 04:29:25;;;;;;;30.40;20.20;;;;;;;3.99;100.00;100811.47;5012055;28;20053;-77
2023/12/27 04:31:50;;;;;;;27.30;17.88;;;;;;;4.48;100.00;100890.59;5012193;28;20030;-77
2023/12/27 04:34:16;;;;;;;23.55;14.20;;;;;;;4.52;100.00;100902.84;5012188;28;20018;-77
2023/12/27 04:36:42;;;;;;;28.50;16.63;;;;;;;4.13;100.00;100832.84;5012181;28;20022;-77
2023/12/27 04:39:07;;;;;;;23.85;17.48;;;;;;;4.18;100.00;100872.38;5011821;28;20480;-77
2023/12/27 04:41:33;;;;;;;22.17;14.07;;;;;;;4.11;100.00;100915.31;5011967;28;20045;-76
2023/12/27 04:43:59;;;;;;;18.88;12.52;;;;;;;3.98;100.00;100909.31;5011823;28;20471;-76
2023/12/27 04:46:24;;;;;;;19.83;12.38;;;;;;;3.87;100.00;100911.09;5012107;28;20039;-76
2023/12/27 04:48:49;;;;;;;25.42;13.73;;;;;;;3.73;100.00;100912.69;5010480;28;20487;-76
2023/12/27 04:51:15;;;;;;;23.75;13.50;;;;;;;3.23;100.00;100829.16;5011776;28;20033;-76
2023/12/27 04:53:41;;;;;;;21.40;12.20;;;;;;;3.69;100.00;100900.50;5011528;28;20050;-77
2023/12/27 04:56:06;;;;;;;21.45;12.90;;;;;;;3.60;100.00;100897.28;5010355;28;20092;-78
2023/12/27 04:58:35;;;;;;;23.95;12.70;;;;;;;3.52;100.00;100883.06;5011553;28;20116;-77
2023/12/27 05:01:08;;;;;;;22.95;13.20;;;;;;;3.64;100.00;100877.94;5011839;28;20128;-78
2023/12/27 05:03:35;;;;;;;22.10;13.63;;;;;;;3.84;100.00;100922.81;5011498;28;20500;-77
2023/12/27 05:06:08;;;;;;;24.98;12.38;;;;;;;3.74;100.00;100926.38;5011581;28;20105;-78
2023/12/27 05:08:34;;;;;;;22.60;14.32;;;;;;;3.35;100.00;100848.69;5010150;28;20054;-77
2023/12/27 05:10:59;;;;;;;24.42;16.33;;;;;;;3.86;100.00;100927.25;5011349;28;20123;-78
2023/12/27 05:13:25;;;;;;;29.40;17.95;;;;;;;3.88;100.00;100919.69;5011581;28;20030;-77
2023/12/27 05:15:50;;;;;;;31.92;17.88;;;;;;;3.96;100.00;100928.78;5011486;28;20040;-78
2023/12/27 05:18:16;;;;;;;22.42;14.68;;;;;;;4.03;100.00;100947.97;5011359;28;20029;-78
2023/12/27 05:20:41;;;;;;;24.67;15.35;;;;;;;3.92;100.00;100954.88;5010041;28;20029;-78
2023/12/27 05:23:07;;;;;;;24.83;14.93;;;;;;;3.99;100.00;100961.31;5011209;28;20040;-78
2023/12/27 05:25:32;;;;;;;24.50;15.18;;;;;;;3.68;100.00;100908.94;5011135;28;20029;-78
2023/12/27 05:27:58;;;;;;;24.45;14.90;;;;;;;4.02;100.00;100967.50;5011299;28;20049;-77
2023/12/27 05:30:23;;;;;;;24.75;14.60;;;;;;;4.12;100.00;100975.84;5009689;28;20026;-77
2023/12/27 05:32:49;;;;;;;21.25;14.10;;;;;;;4.10;100.00;100962.97;5009930;28;20033;-77
2023/12/27 05:35:14;;;;;;;29.35;19.35;;;;;;;4.01;100.00;100964.84;5010777;28;20108;-78
2023/12/27 05:37:40;;;;;;;27.98;19.70;;;;;;;3.91;100.00;100968.41;5011067;28;20100;-77
2023/12/27 05:40:06;;;;;;;27.85;17.10;;;;;;;3.95;100.00;100970.44;5011034;28;20046;-78
2023/12/27 05:42:31;;;;;;;25.20;13.90;;;;;;;3.98;100.00;100965.53;5011394;28;20042;-78
2023/12/27 05:44:57;;;;;;;25.80;13.75;;;;;;;4.02;100.00;100982.84;5009072;28;20030;-78
2023/12/27 05:47:23;;;;;;;23.02;12.90;;;;;;;4.08;100.00;100986.66;5010789;28;20049;-78
2023/12/27 05:49:48;;;;;;;46.38;25.70;;;;;;;4.08;100.00;100992.63;5010920;28;20109;-78
2023/12/27 05:52:14;;;;;;;114.05;53.20;;;;;;;4.03;100.00;100988.84;5010338;28;20029;-77
2023/12/27 05:54:39;;;;;;;22.90;13.68;;;;;;;3.93;100.00;100982.19;5010320;28;20027;-78
2023/12/27 05:57:05;;;;;;;22.95;14.77;;;;;;;4.01;100.00;101001.53;5010495;28;20038;-78
2023/12/27 05:59:31;;;;;;;28.73;17.05;;;;;;;4.04;100.00;100996.63;5009226;28;20336;-78
2023/12/27 06:01:56;;;;;;;27.58;15.52;;;;;;;3.99;100.00;100997.97;5009221;28;20061;-77
2023/12/27 06:04:22;;;;;;;20.63;12.43;;;;;;;4.11;100.00;101009.84;5010966;28;20026;-77
2023/12/27 06:06:52;;;;;;;20.48;11.30;;;;;;;3.98;100.00;100975.75;5010237;28;20748;-77
2023/12/27 06:09:17;;;;;;;;;;;;;;;4.14;100.00;101003.28;5009739;28;20396;-78
2023/12/27 06:11:43;;;;;;;20.20;11.68;;;;;;;4.07;100.00;100989.97;5009500;28;19921;-77
2023/12/27 06:14:08;;;;;;;20.55;10.95;;;;;;;4.17;100.00;100987.28;5010593;28;20041;-79
2023/12/27 06:16:34;;;;;;;20.45;10.90;;;;;;;3.99;100.00;100966.44;5010461;28;20045;-78
2023/12/27 06:19:00;;;;;;;18.40;10.43;;;;;;;4.09;100.00;100984.19;5010290;28;20030;-79
2023/12/27 06:21:26;;;;;;;17.20;9.07;;;;;;;4.01;100.00;100980.19;5010484;28;20109;-78
2023/12/27 06:23:51;;;;;;;18.40;10.07;;;;;;;4.14;100.00;100997.31;5010386;28;20041;-77
2023/12/27 06:26:17;;;;;;;17.88;11.13;;;;;;;4.21;100.00;101002.03;5010550;28;20026;-79
2023/12/27 06:28:43;;;;;;;20.67;11.93;;;;;;;4.34;100.00;101034.50;5010576;28;20014;-78
2023/12/27 06:31:09;;;;;;;18.63;12.07;;;;;;;4.47;100.00;101041.34;5008932;28;20026;-78
2023/12/27 06:33:35;;;;;;;22.88;13.30;;;;;;;4.53;100.00;101021.34;5010491;28;20041;-79
2023/12/27 06:36:00;;;;;;;19.42;11.82;;;;;;;4.49;100.00;101012.56;5010231;28;20452;-79
2023/12/27 06:38:26;;;;;;;23.65;12.85;;;;;;;4.48;100.00;101028.66;5010282;28;20391;-77
2023/12/27 06:40:52;;;;;;;23.15;13.30;;;;;;;4.46;100.00;101027.69;5009791;28;20049;-77
2023/12/27 06:43:17;;;;;;;21.45;12.00;;;;;;;4.26;100.00;100987.03;5009544;28;20030;-78
2023/12/27 06:45:43;;;;;;;20.42;10.38;;;;;;;4.56;100.00;101034.34;5009577;28;20030;-78
2023/12/27 06:48:08;;;;;;;15.93;9.13;;;;;;;4.61;100.00;101040.66;5009751;28;20036;-77
2023/12/27 06:50:34;;;;;;;15.88;10.07;;;;;;;4.17;100.00;100948.94;5008325;28;20104;-76
2023/12/27 06:52:59;;;;;;;19.33;9.55;;;;;;;4.79;100.00;101052.97;5009365;28;20480;-77
2023/12/27 06:55:25;;;;;;;17.15;10.70;;;;;;;4.92;100.00;101053.03;5009470;28;20026;-77
2023/12/27 06:57:50;;;;;;;22.52;12.20;;;;;;;5.05;100.00;101066.66;5009908;28;20140;-77
2023/12/27 07:00:16;;;;;;;20.13;10.65;;;;;;;5.13;100.00;101075.75;5009559;28;20038;-76
2023/12/27 07:02:41;;;;;;;19.63;11.52;;;;;;;4.85;100.00;101009.91;5009551;28;20029;-76
2023/12/27 07:05:07;;;;;;;18.45;9.57;;;;;;;5.19;100.00;101061.69;5009324;28;20448;-77
2023/12/27 07:07:34;;;;;;;15.40;8.18;;;;;;;5.46;100.00;101086.53;5010107;28;20121;-77
2023/12/27 07:10:00;;;;;;;16.17;8.50;;;;;;;5.46;100.00;101082.28;5010046;28;20030;-76
2023/12/27 07:12:25;;;;;;;16.52;8.55;;;;;;;5.53;100.00;101068.19;5008905;28;20482;-77
2023/12/27 07:14:51;;;;;;;15.30;8.63;;;;;;;5.78;100.00;101090.34;5008817;28;20381;-77
2023/12/27 07:17:16;;;;;;;13.63;8.18;;;;;;;5.94;100.00;101092.22;5010162;28;20026;-77
2023/12/27 07:19:41;;;;;;;17.13;9.20;;;;;;;6.13;100.00;101096.91;5012201;28;20053;-77
2023/12/27 07:22:07;;;;;;;15.63;8.68;;;;;;;5.99;100.00;101042.19;5013414;28;20034;-77
2023/12/27 07:24:32;;;;;;;14.95;8.80;;;;;;;6.42;100.00;101097.91;5013571;28;20477;-78
2023/12/27 07:26:58;;;;;;;14.77;8.05;;;;;;;6.60;100.00;101109.34;5013614;28;20112;-78
2023/12/27 07:29:24;;;;;;;14.70;7.72;;;;;;;6.70;100.00;101094.53;5011579;28;20495;-77
2023/12/27 07:31:49;;;;;;;15.88;7.78;;;;;;;6.86;100.00;101101.50;5013201;28;20034;-77
2023/12/27 07:34:16;;;;;;;19.25;8.93;;;;;;;7.05;100.00;101114.69;5013155;28;20026;-76
2023/12/27 07:36:41;;;;;;;15.30;8.35;;;;;;;7.24;100.00;101121.84;5011332;28;20034;-76
2023/12/27 07:39:09;;;;;;;17.33;10.20;;;;;;;7.25;100.00;101115.00;5013210;28;20096;-76
2023/12/27 07:41:34;;;;;;;16.83;7.85;;;;;;;7.32;100.00;101113.72;5013040;28;20037;-76
2023/12/27 07:44:00;;;;;;;16.90;8.27;;;;;;;7.55;100.00;101138.19;5013042;28;20026;-75
2023/12/27 07:46:25;;;;;;;13.60;7.72;;;;;;;7.65;100.00;101131.94;5011460;28;20100;-75
2023/12/27 07:48:51;;;;;;;14.95;8.32;;;;;;;7.79;100.00;101133.66;5012983;28;20029;-75
2023/12/27 07:51:16;;;;;;;14.10;7.40;;;;;;;7.89;100.00;101146.22;5012575;28;20033;-75
2023/12/27 07:53:42;;;;;;;13.07;7.60;;;;;;;8.07;100.00;101140.38;5013254;28;20039;-75
2023/12/27 07:56:12;;;;;;;14.98;7.53;;;;;;;8.22;100.00;101133.56;5012934;28;20405;-75
2023/12/27 07:58:39;;;;;;;17.48;8.00;;;;;;;8.39;100.00;101139.66;5012841;28;20034;-74
2023/12/27 08:01:04;;;;;;;16.83;7.55;;;;;;;8.64;100.00;101161.66;5012605;28;20510;-75
2023/12/27 08:03:31;;;;;;;14.10;8.10;;;;;;;8.82;100.00;101141.22;5012622;28;20112;-75
2023/12/27 08:05:56;;;;;;;16.00;7.82;;;;;;;8.97;100.00;101137.69;5012666;28;20046;-75
2023/12/27 08:08:25;;;;;;;14.55;7.35;;;;;;;9.07;100.00;101130.53;4993803;28;20088;-75
2023/12/27 08:10:50;;;;;;;12.63;6.70;;;;;;;9.33;100.00;101148.19;4992927;28;20034;-74
2023/12/27 08:13:15;;;;;;;13.93;8.18;;;;;;;9.50;100.00;101147.38;4992577;28;20045;-74
2023/12/27 08:15:41;;;;;;;13.75;7.50;;;;;;;9.59;100.00;101153.81;4992866;28;20030;-75
2023/12/27 08:18:06;;;;;;;17.38;7.53;;;;;;;9.48;100.00;101119.75;5007835;28;20032;-77
2023/12/27 08:20:32;;;;;;;13.85;6.60;;;;;;;9.81;100.00;101156.69;5009664;28;20054;-76
2023/12/27 08:23:01;;;;;;;11.55;6.28;;;;;;;9.90;100.00;101171.75;5019750;28;20095;-77
2023/12/27 08:25:26;;;;;;;14.77;6.00;;;;;;;10.05;100.00;101169.06;5028503;28;20050;-75
2023/12/27 08:27:52;;;;;;;10.73;5.32;;;;;;;10.16;98.96;101157.56;5028347;28;20041;-76
2023/12/27 08:30:17;;;;;;;14.73;6.07;;;;;;;10.13;99.16;101136.78;5028417;28;20099;-76
2023/12/27 08:32:43;;;;;;;12.15;5.75;;;;;;;10.34;99.15;101159.28;5012175;28;20505;-76
2023/12/27 08:35:08;;;;;;;10.70;5.47;;;;;;;10.46;98.31;101159.91;5028698;28;20088;-76
2023/12/27 08:37:34;;;;;;;11.82;5.65;;;;;;;10.56;98.10;101171.59;5029205;28;20136;-75
2023/12/27 08:39:59;;;;;;;10.07;5.78;;;;;;;10.71;96.63;101176.59;5028304;28;20144;-75
2023/12/27 08:42:24;;;;;;;11.25;5.40;;;;;;;10.75;95.65;101167.31;5028626;28;20037;-75
2023/12/27 08:44:50;;;;;;;9.85;5.15;;;;;;;10.87;95.99;101162.72;5028521;28;20033;-75
2023/12/27 08:47:15;;;;;;;10.05;4.60;;;;;;;10.93;95.53;101156.94;5028666;28;20112;-74
2023/12/27 08:49:41;;;;;;;9.27;4.88;;;;;;;11.02;94.79;101157.38;5028559;28;20511;-75
2023/12/27 08:52:07;;;;;;;13.73;5.75;;;;;;;11.13;94.32;101163.91;5009465;28;20045;-76
2023/12/27 08:54:33;;;;;;;10.05;4.72;;;;;;;11.21;94.34;101150.47;5011451;28;20061;-76
2023/12/27 08:56:58;;;;;;;13.75;5.38;;;;;;;10.99;93.84;101085.78;5010096;28;20026;-76
2023/12/27 08:59:24;;;;;;;11.77;5.75;;;;;;;11.53;94.29;101145.84;5042174;28;20038;-76
2023/12/27 09:01:50;;;;;;;9.73;4.93;;;;;;;11.63;92.74;101150.59;5011239;28;20033;-77
2023/12/27 09:04:18;;;;;;;11.05;5.63;;;;;;;11.82;92.04;101157.44;5011000;28;20053;-76
2023/12/27 09:06:44;;;;;;;12.18;5.30;;;;;;;11.85;90.76;101147.25;5010126;28;20491;-77
2023/12/27 09:09:11;;;;;;;10.60;5.25;;;;;;;11.62;89.82;101089.34;5010687;28;20029;-77
2023/12/27 09:11:37;;;;;;;12.75;5.10;;;;;;;12.07;89.56;101143.88;5008871;28;20042;-77
2023/12/27 09:14:05;;;;;;;12.05;4.70;;;;;;;12.18;88.91;101153.81;5010822;28;20022;-77
2023/12/27 09:16:31;;;;;;;7.10;4.18;;;;;;;12.21;88.86;101138.38;5010684;28;20473;-76
2023/12/27 09:18:58;;;;;;;12.27;4.88;;;;;;;12.29;86.34;101139.59;5010941;28;20032;-77
2023/12/27 09:21:24;;;;;;;8.25;3.90;;;;;;;12.40;85.56;101140.00;5011186;28;20400;-77
2023/12/27 09:23:49;;;;;;;10.80;4.50;;;;;;;12.61;85.42;101153.84;5010733;28;20026;-78
2023/12/27 09:26:15;;;;;;;8.98;4.32;;;;;;;12.76;84.79;101139.69;5010838;28;20048;-76
2023/12/27 09:28:40;;;;;;;8.05;3.78;;;;;;;12.92;83.09;101136.88;5010724;28;20157;-77
2023/12/27 09:31:08;;;;;;;10.52;4.35;;;;;;;12.73;83.44;101091.22;5010660;28;20399;-77
2023/12/27 09:33:33;;;;;;;9.52;4.70;;;;;;;13.18;81.99;101131.78;5010850;28;20452;-77
2023/12/27 09:35:59;;;;;;;8.95;4.55;;;;;;;13.21;81.64;101118.06;5006697;28;20026;-78
2023/12/27 09:38:24;;;;;;;8.50;3.90;;;;;;;13.39;80.72;101129.13;4991776;28;20064;-75
2023/12/27 09:40:49;;;;;;;10.88;4.35;;;;;;;13.44;79.46;101134.47;5006437;28;20061;-75
2023/12/27 09:43:16;;;;;;;8.35;3.72;;;;;;;13.61;77.12;101132.50;5005952;28;20054;-77
2023/12/27 09:45:42;;;;;;;9.32;3.58;;;;;;;13.68;76.63;101126.69;5005810;28;20030;-76
2023/12/27 09:48:13;;;;;;;10.65;3.20;;;;;;;13.70;75.76;101106.84;5010418;28;20026;-77
2023/12/27 09:50:42;;;;;;;8.45;4.03;;;;;;;13.90;76.32;101122.22;5010090;28;20120;-77
2023/12/27 09:53:13;;;;;;;10.00;3.85;;;;;;;13.64;75.44;101075.50;5009130;28;20026;-79
2023/12/27 09:55:38;;;;;;;11.43;4.03;;;;;;;13.78;75.33;101078.56;5010485;28;20034;-80
2023/12/27 09:58:04;;;;;;;7.63;3.38;;;;;;;13.83;74.83;101094.28;5010450;28;20022;-78
2023/12/27 10:00:33;;;;;;;9.07;2.95;;;;;;;14.07;74.85;101123.66;5010128;28;20034;-79
2023/12/27 10:02:59;;;;;;;8.45;2.88;;;;;;;13.92;74.82;101084.25;5007518;28;20108;-77
2023/12/27 10:05:57;;;;;;;5.68;2.22;;;;;;;14.18;72.91;101117.94;5010488;28;20030;-77
2023/12/27 10:08:23;;;;;;;5.65;2.33;;;;;;;14.24;72.73;101120.75;4968827;28;20118;-77
2023/12/27 10:10:51;;;;;;;6.38;2.60;;;;;;;14.20;73.66;101103.31;4968725;28;20129;-77
2023/12/27 10:13:19;;;;;;;4.78;2.60;;;;;;;13.95;72.66;101032.41;4968552;28;20050;-77
2023/12/27 10:15:44;;;;;;;5.10;2.53;;;;;;;14.34;72.17;101093.34;4968896;28;20456;-76
2023/12/27 10:18:10;;;;;;;6.40;2.30;;;;;;;14.36;72.25;101074.38;4968902;28;20098;-80
2023/12/27 10:20:43;;;;;;;7.55;2.83;;;;;;;14.58;72.15;101093.25;4946690;28;20081;-77
2023/12/27 10:23:08;;;;;;;7.75;3.00;;;;;;;14.53;71.69;101080.09;4968700;28;20572;-77
2023/12/27 10:25:35;;;;;;;6.90;2.90;;;;;;;14.57;71.54;101096.69;4968581;28;20058;-77
2023/12/27 10:28:00;;;;;;;8.32;3.40;;;;;;;14.17;70.82;101025.31;4968516;28;20037;-78
2023/12/27 10:30:26;;;;;;;8.55;3.40;;;;;;;14.45;69.83;101072.91;4968656;28;20039;-75
2023/12/27 10:33:02;;;;;;;9.93;4.22;;;;;;;14.59;72.08;101078.53;4968162;28;20259;-76
2023/12/27 10:35:28;;;;;;;7.25;3.67;;;;;;;14.60;71.79;101069.91;4966771;28;20045;-77
2023/12/27 10:38:02;;;;;;;8.40;3.67;;;;;;;14.66;70.04;101077.91;4966770;28;20047;-77
2023/12/27 10:40:27;;;;;;;8.27;3.40;;;;;;;14.54;71.18;101075.78;4946209;28;20110;-77
2023/12/27 10:42:53;;;;;;;11.40;4.28;;;;;;;14.63;71.09;101073.47;4968844;28;20074;-76
2023/12/27 10:45:21;;;;;;;7.40;3.03;;;;;;;14.68;70.76;101090.13;4980933;28;20075;-77
2023/12/27 10:47:49;;;;;;;7.72;3.20;;;;;;;14.63;70.52;101077.78;5010252;28;20025;-77
2023/12/27 10:50:20;;;;;;;8.40;3.20;;;;;;;14.78;70.05;101080.88;5008837;28;20033;-76
2023/12/27 10:52:57;;;;;;;5.35;2.53;;;;;;;14.42;69.95;101011.34;5012779;28;20057;-77
2023/12/27 10:55:26;;;;;;;6.40;3.35;;;;;;;14.88;70.34;101053.44;5012371;28;20026;-77
2023/12/27 10:57:55;;;;;;;;;;;;;;;14.97;68.67;101063.22;5014274;28;20037;-77
2023/12/27 11:00:24;;;;;;;8.05;3.30;;;;;;;15.04;69.52;101063.44;5012485;28;20012;-76
2023/12/27 11:02:53;;;;;;;5.88;2.83;;;;;;;15.06;68.51;101044.41;5012201;28;20403;-77
2023/12/27 11:05:22;;;;;;;7.00;3.40;;;;;;;14.99;70.93;101038.13;5012453;28;20417;-76
2023/12/27 11:07:50;;;;;;;6.97;2.85;;;;;;;14.93;68.79;101049.25;5014177;28;20030;-77
2023/12/27 11:10:16;;;;;;;10.82;3.30;;;;;;;15.18;66.83;101055.13;5013520;28;20022;-77